Time;durP1;ratioP1;P1;durP2;ratioP2;P2;SDS_P1;SDS_P2;PMS_P1;PMS_P2;Temp;Humidity;BMP_temperature;BMP_pressure;BME280_temperature;BME280_humidity;BME280_pressure;Samples;Min_cycle;Max_cycle;Signal;HPM_P1;HPM_P2
2023/06/12 00:00:29;;;;;;;0.40;0.40;;;;;;;18.99;46.14;96026.03;29395;251;63017;-63
2023/06/12 00:01:04;;;;;;;0.37;0.37;;;;;;;19.00;46.01;96022.13;29395;229;63004;-65
2023/06/12 00:01:36;;;;;;;0.40;0.40;;;;;;;18.99;46.08;96020.53;29395;235;63008;-61
2023/06/12 00:02:08;;;;;;;0.40;0.40;;;;;;;18.99;46.10;96015.03;29394;196;64008;-61
2023/06/12 00:02:39;;;;;;;0.40;0.40;;;;;;;18.96;46.83;96022.03;29395;215;63008;-63
2023/06/12 00:03:13;;;;;;;0.40;0.40;;;;;;;18.94;46.80;96018.84;29395;210;63005;-63
2023/06/12 00:03:47;;;;;;;0.40;0.40;;;;;;;18.94;46.34;96023.53;29395;257;63009;-52
2023/06/12 00:04:18;;;;;;;0.40;0.40;;;;;;;18.94;46.28;96021.59;29395;270;63005;-64
2023/06/12 00:04:49;;;;;;;0.40;0.40;;;;;;;18.95;46.24;96025.94;29395;300;63009;-52
2023/06/12 00:05:21;;;;;;;0.40;0.40;;;;;;;18.97;45.99;96017.34;29395;238;63005;-52
2023/06/12 00:06:04;;;;;;;0.40;0.40;;;;;;;18.95;46.32;96014.13;29395;217;63009;-62
2023/06/12 00:06:37;;;;;;;0.40;0.40;;;;;;;18.93;46.36;96017.25;29395;221;63004;-61
2023/06/12 00:07:11;;;;;;;0.30;0.30;;;;;;;18.91;46.44;96018.75;29394;198;64013;-52
2023/06/12 00:07:44;;;;;;;0.40;0.40;;;;;;;18.90;46.59;96015.19;29395;231;63004;-63
2023/06/12 00:08:17;;;;;;;0.40;0.40;;;;;;;18.90;46.40;96022.63;29395;211;63009;-52
2023/06/12 00:08:55;;;;;;;0.40;0.40;;;;;;;18.90;46.40;96022.63;29395;238;63004;-63
2023/06/12 00:09:26;;;;;;;0.40;0.40;;;;;;;18.90;46.59;96019.88;29395;203;63013;-64
2023/06/12 00:09:57;;;;;;;0.40;0.40;;;;;;;18.91;46.31;96018.75;29395;284;63005;-64
2023/06/12 00:10:29;;;;;;;0.40;0.40;;;;;;;18.92;46.26;96021.13;29395;340;63009;-52
2023/06/12 00:11:01;;;;;;;0.40;0.40;;;;;;;18.93;46.27;96016.44;29395;200;63005;-51
2023/06/12 00:11:33;;;;;;;0.40;0.40;;;;;;;18.92;46.51;96015.63;29395;314;63009;-52
2023/06/12 00:12:06;;;;;;;0.40;0.40;;;;;;;18.93;46.37;96024.69;29395;218;63005;-63
2023/06/12 00:12:37;;;;;;;0.40;0.40;;;;;;;18.90;46.40;96023.44;29394;202;64013;-62
2023/06/12 00:13:10;;;;;;;0.40;0.40;;;;;;;18.90;46.58;96019.88;29395;233;63005;-52
2023/06/12 00:13:46;;;;;;;0.40;0.40;;;;;;;18.92;46.57;96018.38;29394;202;64013;-52
2023/06/12 00:14:18;;;;;;;0.35;0.35;;;;;;;18.95;46.27;96019.62;29395;224;63004;-62
2023/06/12 00:14:49;;;;;;;0.50;0.50;;;;;;;18.96;46.04;96015.72;29395;203;63009;-52
2023/06/12 00:15:20;;;;;;;0.40;0.40;;;;;;;18.97;46.09;96022.84;29395;274;63007;-62
2023/06/12 00:15:53;;;;;;;0.40;0.40;;;;;;;18.96;46.28;96022.03;29395;215;63009;-53
2023/06/12 00:16:25;;;;;;;0.40;0.40;;;;;;;18.97;46.35;96012.63;29395;204;63004;-52
2023/06/12 00:16:57;;;;;;;0.40;0.40;;;;;;;19.00;46.18;96016.63;29394;250;64013;-65
2023/06/12 00:17:28;;;;;;;0.30;0.30;;;;;;;18.99;45.89;96015.84;29395;231;63005;-52
2023/06/12 00:18:00;;;;;;;0.30;0.30;;;;;;;18.99;46.02;96012.28;29395;246;63009;-62
2023/06/12 00:18:31;;;;;;;0.40;0.40;;;;;;;18.96;46.28;96013.78;29395;203;63005;-63
2023/06/12 00:19:03;;;;;;;0.40;0.40;;;;;;;18.93;46.56;96022.75;29395;209;63009;-61
2023/06/12 00:19:37;;;;;;;0.30;0.30;;;;;;;18.92;46.56;96018.38;29395;219;63005;-61
2023/06/12 00:20:09;;;;;;;0.30;0.30;;;;;;;18.92;46.31;96020.34;29395;211;63009;-63
2023/06/12 00:20:40;;;;;;;0.40;0.40;;;;;;;18.94;46.17;96018.03;29395;222;63005;-63
2023/06/12 00:21:12;;;;;;;0.35;0.35;;;;;;;18.93;46.33;96016.44;29395;216;63019;-62
2023/06/12 00:21:45;;;;;;;0.30;0.30;;;;;;;18.92;46.33;96020.34;29394;262;64009;-51
2023/06/12 00:22:16;;;;;;;0.40;0.40;;;;;;;18.91;46.36;96016.00;29395;244;63009;-61
2023/06/12 00:22:48;;;;;;;0.40;0.40;;;;;;;18.91;46.43;96010.50;29395;218;63004;-51
2023/06/12 00:23:22;;;;;;;0.40;0.40;;;;;;;18.89;46.61;96010.03;29395;197;63009;-61
2023/06/12 00:23:53;;;;;;;0.40;0.40;;;;;;;18.87;46.48;96018.62;29395;253;63004;-62
2023/06/12 00:24:25;;;;;;;0.40;0.40;;;;;;;18.87;46.73;96017.84;29395;202;63020;-62
2023/06/12 00:24:56;;;;;;;0.40;0.40;;;;;;;18.85;46.71;96020.94;29395;232;63005;-61
2023/06/12 00:25:28;;;;;;;0.35;0.35;;;;;;;18.83;46.84;96017.75;29395;216;63009;-52
2023/06/12 00:25:59;;;;;;;0.40;0.40;;;;;;;18.83;46.70;96023.25;29394;207;64005;-63
2023/06/12 00:26:30;;;;;;;0.40;0.40;;;;;;;18.82;46.95;96024.41;29395;212;63005;-64
2023/06/12 00:27:02;;;;;;;0.40;0.40;;;;;;;18.81;46.85;96016.50;29394;230;64009;-63
2023/06/12 00:27:33;;;;;;;0.40;0.40;;;;;;;18.85;46.34;96025.62;29395;234;63018;-64
2023/06/12 00:28:06;;;;;;;0.30;0.30;;;;;;;18.84;46.42;96024.84;29394;232;64009;-64
2023/06/12 00:28:37;;;;;;;0.30;0.30;;;;;;;18.83;46.47;96019.69;29395;212;63009;-65
2023/06/12 00:29:10;;;;;;;0.30;0.30;;;;;;;18.81;46.73;96019.25;29395;220;63004;-51
2023/06/12 00:29:42;;;;;;;0.30;0.30;;;;;;;18.78;46.66;96020.75;29394;212;64013;-62
2023/06/12 00:30:15;;;;;;;0.30;0.30;;;;;;;18.79;46.80;96019.59;29394;214;64009;-62
2023/06/12 00:30:47;;;;;;;0.30;0.30;;;;;;;18.79;46.76;96022.34;29395;215;63009;-51
2023/06/12 00:31:19;;;;;;;0.30;0.30;;;;;;;18.82;46.48;96012.59;29395;212;63004;-63
2023/06/12 00:31:52;;;;;;;0.40;0.40;;;;;;;18.82;46.44;96020.84;29395;213;63014;-63
2023/06/12 00:32:26;;;;;;;0.40;0.40;;;;;;;18.81;46.60;96014.56;29394;275;64009;-62
2023/06/12 00:32:57;;;;;;;0.40;0.40;;;;;;;18.81;46.51;96020.03;29395;208;63009;-51
2023/06/12 00:33:28;;;;;;;1.02;1.02;;;;;;;18.80;46.73;96023.94;29395;324;63005;-62
2023/06/12 00:33:59;;;;;;;0.37;0.37;;;;;;;18.81;46.71;96016.50;29395;210;63009;-70
2023/06/12 00:34:31;;;;;;;0.30;0.30;;;;;;;18.83;46.61;96016.94;29394;269;64009;-61
2023/06/12 00:35:03;;;;;;;0.30;0.30;;;;;;;18.85;46.24;96015.44;29395;211;63009;-52
2023/06/12 00:35:36;;;;;;;0.30;0.30;;;;;;;18.85;46.61;96014.66;29395;199;63005;-62
2023/06/12 00:36:07;;;;;;;0.40;0.40;;;;;;;18.87;46.37;96017.84;29395;240;63009;-65
2023/06/12 00:36:39;;;;;;;0.35;0.35;;;;;;;18.91;46.20;96013.25;29395;198;63004;-64
2023/06/12 00:37:17;;;;;;;0.30;0.30;;;;;;;18.92;46.09;96014.84;29395;264;63009;-61
2023/06/12 00:37:49;;;;;;;0.30;0.30;;;;;;;18.89;46.64;96015.53;29395;197;63004;-51
2023/06/12 00:38:21;;;;;;;0.40;0.40;;;;;;;18.87;46.56;96023.34;29395;210;63009;-62
2023/06/12 00:38:53;;;;;;;0.30;0.30;;;;;;;18.86;46.63;96016.25;29395;259;63004;-52
2023/06/12 00:39:24;;;;;;;0.30;0.30;;;;;;;18.85;46.41;96020.16;29395;204;63008;-52
2023/06/12 00:39:56;;;;;;;0.30;0.30;;;;;;;18.87;46.24;96023.34;29394;203;64009;-61
2023/06/12 00:40:32;;;;;;;0.30;0.30;;;;;;;18.93;46.06;96019.19;29395;245;63022;-52
2023/06/12 00:41:03;;;;;;;0.30;0.30;;;;;;;18.92;46.36;96012.88;29395;322;63005;-63
2023/06/12 00:41:34;;;;;;;0.30;0.30;;;;;;;18.92;45.91;96014.84;29395;279;63009;-64
2023/06/12 00:42:06;;;;;;;0.30;0.30;;;;;;;18.89;46.15;96012.78;29395;202;63005;-50
2023/06/12 00:42:45;;;;;;;0.30;0.30;;;;;;;18.89;46.62;96026.53;29394;206;64013;-65
2023/06/12 00:43:17;;;;;;;0.30;0.30;;;;;;;18.91;46.23;96021.50;29395;246;63005;-64
2023/06/12 00:43:48;;;;;;;0.30;0.30;;;;;;;18.92;46.15;96021.13;29395;222;63009;-63
2023/06/12 00:44:20;;;;;;;0.30;0.30;;;;;;;18.92;46.48;96023.09;29395;222;63004;-51
2023/06/12 00:44:51;;;;;;;0.30;0.30;;;;;;;18.91;46.20;96019.53;29395;237;63009;-52
2023/06/12 00:45:23;;;;;;;0.30;0.30;;;;;;;18.89;46.26;96029.28;29395;326;63004;-61
2023/06/12 00:45:55;;;;;;;0.30;0.30;;;;;;;18.88;46.31;96019.44;29394;245;64013;-63
2023/06/12 00:46:27;;;;;;;0.40;0.40;;;;;;;18.85;46.64;96026.44;29395;202;63004;-61
2023/06/12 00:47:04;;;;;;;0.30;0.30;;;;;;;18.83;46.42;96028.75;29395;226;63024;-51
2023/06/12 00:47:36;;;;;;;0.50;0.50;;;;;;;18.84;46.55;96026.78;29394;218;64009;-52
2023/06/12 00:48:08;;;;;;;0.40;0.40;;;;;;;18.82;47.03;96026.34;29395;232;63009;-51
2023/06/12 00:48:41;;;;;;;0.40;0.40;;;;;;;18.78;46.94;96025.44;29394;314;64005;-62
2023/06/12 00:49:12;;;;;;;0.40;0.40;;;;;;;18.78;46.62;96025.44;29395;348;63009;-51
2023/06/12 00:49:44;;;;;;;0.30;0.30;;;;;;;18.77;46.82;96027.41;29395;316;63005;-51
2023/06/12 00:50:16;;;;;;;0.30;0.30;;;;;;;18.79;46.87;96027.03;29395;362;63009;-51
2023/06/12 00:50:48;;;;;;;0.40;0.40;;;;;;;18.78;46.65;96025.44;29394;224;64009;-60
2023/06/12 00:51:20;;;;;;;0.30;0.30;;;;;;;18.75;46.67;96026.94;29395;206;63009;-60
2023/06/12 00:51:52;;;;;;;0.30;0.30;;;;;;;18.75;46.97;96027.75;29395;227;63004;-64
2023/06/12 00:52:29;;;;;;;0.30;0.30;;;;;;;18.77;47.14;96021.09;29395;212;63009;-51
2023/06/12 00:53:03;;;;;;;0.40;0.40;;;;;;;18.77;47.11;96019.16;29395;212;63004;-53
2023/06/12 00:53:35;;;;;;;0.40;0.40;;;;;;;18.77;46.79;96021.09;29395;298;63009;-61
2023/06/12 00:54:07;;;;;;;0.40;0.40;;;;;;;18.75;47.20;96016.75;29395;209;63004;-53
2023/06/12 00:54:44;;;;;;;0.35;0.35;;;;;;;18.74;47.20;96023.41;29395;220;63008;-52
2023/06/12 00:55:16;;;;;;;0.40;0.40;;;;;;;18.79;46.88;96021.53;29395;394;63005;-62
2023/06/12 00:55:48;;;;;;;0.30;0.30;;;;;;;18.77;46.94;96023.84;29394;211;64014;-63
2023/06/12 00:56:19;;;;;;;0.40;0.40;;;;;;;18.75;46.84;96024.19;29394;207;64009;-62
2023/06/12 00:56:51;;;;;;;0.30;0.30;;;;;;;18.73;47.00;96023.75;29395;202;63009;-63
2023/06/12 00:57:23;;;;;;;0.40;0.40;;;;;;;18.70;47.18;96019.78;29395;318;63005;-65
2023/06/12 00:57:54;;;;;;;0.40;0.40;;;;;;;18.67;47.12;96031.47;29395;202;63009;-53
2023/06/12 00:58:28;;;;;;;0.30;0.30;;;;;;;18.65;47.24;96028.28;29395;324;63005;-52
2023/06/12 00:58:59;;;;;;;0.30;0.30;;;;;;;18.63;47.54;96029.78;29394;200;64013;-52
2023/06/12 00:59:31;;;;;;;0.40;0.40;;;;;;;18.62;47.44;96023.47;29395;215;63004;-52
2023/06/12 01:00:07;;;;;;;0.32;0.32;;;;;;;18.60;47.66;96031.28;29395;225;63009;-52
2023/06/12 01:00:40;;;;;;;0.40;0.40;;;;;;;18.58;47.54;96024.50;29395;238;63004;-62
2023/06/12 01:01:14;;;;;;;0.40;0.40;;;;;;;18.57;47.75;96031.13;29394;220;64009;-65
2023/06/12 01:01:45;;;;;;;0.40;0.40;;;;;;;18.56;47.69;96027.59;29395;290;63004;-63
2023/06/12 01:02:18;;;;;;;0.30;0.30;;;;;;;18.55;47.59;96028.75;29395;209;63008;-63
2023/06/12 01:02:53;;;;;;;0.40;0.40;;;;;;;18.53;48.34;96030.25;29395;230;63005;-53
2023/06/12 01:03:25;;;;;;;0.40;0.40;;;;;;;18.51;48.24;96033.34;29394;288;64014;-51
2023/06/12 01:03:58;;;;;;;0.40;0.40;;;;;;;18.50;48.04;96034.47;29395;226;63005;-62
2023/06/12 01:04:31;;;;;;;0.40;0.40;;;;;;;18.49;47.75;96024.63;29395;199;63009;-63
2023/06/12 01:05:07;;;;;;;0.40;0.40;;;;;;;18.49;47.94;96035.63;29395;237;63005;-65
2023/06/12 01:05:42;;;;;;;0.40;0.40;;;;;;;18.47;48.09;96026.94;29395;198;63009;-51
2023/06/12 01:06:21;;;;;;;0.40;0.40;;;;;;;18.47;48.33;96037.13;29394;293;64009;-51
2023/06/12 01:07:10;;;;;;;0.40;0.40;;;;;;;18.46;48.18;96030.03;29395;237;63013;-62
2023/06/12 01:08:21;;;;;;;0.40;0.40;;;;;;;18.45;48.41;96029.22;29395;199;63004;-62
2023/06/12 01:09:04;;;;;;;0.40;0.40;;;;;;;18.43;48.52;96031.53;29394;236;64013;-63
2023/06/12 01:10:30;;;;;;;0.40;0.40;;;;;;;18.41;48.40;96033.81;29395;204;63004;-62
2023/06/12 01:11:08;;;;;;;0.40;0.40;;;;;;;18.39;48.65;96028.66;29394;199;64013;-51
2023/06/12 01:11:41;;;;;;;0.40;0.40;;;;;;;18.42;48.71;96029.94;29395;287;63005;-63
2023/06/12 01:12:14;;;;;;;0.40;0.40;;;;;;;18.42;48.37;96035.41;29395;228;63009;-62
2023/06/12 01:12:46;;;;;;;0.40;0.40;;;;;;;18.44;48.54;96022.13;29395;238;63005;-52
2023/06/12 01:13:20;;;;;;;0.40;0.40;;;;;;;18.43;48.48;96032.31;29395;230;63009;-63
2023/06/12 01:13:52;;;;;;;0.40;0.40;;;;;;;18.47;48.60;96029.69;29395;204;63004;-65
2023/06/12 01:14:24;;;;;;;0.32;0.32;;;;;;;18.49;48.40;96029.34;29395;221;63009;-52
2023/06/12 01:14:56;;;;;;;0.40;0.40;;;;;;;18.49;48.35;96026.59;29395;228;63004;-51
2023/06/12 01:15:28;;;;;;;0.40;0.40;;;;;;;18.48;48.32;96020.28;29395;322;63015;-63
2023/06/12 01:16:00;;;;;;;0.40;0.40;;;;;;;18.46;48.39;96030.81;29395;277;63004;-63
2023/06/12 01:16:32;;;;;;;0.30;0.30;;;;;;;18.48;48.34;96028.53;29394;226;64013;-67
2023/06/12 01:17:05;;;;;;;0.40;0.40;;;;;;;18.49;48.37;96026.59;29395;219;63006;-63
2023/06/12 01:17:40;;;;;;;0.40;0.40;;;;;;;18.47;48.73;96026.12;29394;203;64014;-54
2023/06/12 01:18:12;;;;;;;0.40;0.40;;;;;;;18.45;48.40;96022.94;29395;211;63010;-52
2023/06/12 01:18:45;;;;;;;0.40;0.40;;;;;;;18.43;48.36;96026.81;29395;246;63009;-52
2023/06/12 01:19:19;;;;;;;0.40;0.40;;;;;;;18.46;48.72;96024.53;29394;211;64009;-63
2023/06/12 01:19:51;;;;;;;0.40;0.40;;;;;;;18.47;48.52;96021.44;29395;258;63009;-52
2023/06/12 01:20:24;;;;;;;0.40;0.40;;;;;;;18.47;48.39;96026.94;29395;199;63005;-62
2023/06/12 01:20:58;;;;;;;0.40;0.40;;;;;;;18.46;48.70;96019.03;29394;200;64013;-63
2023/06/12 01:21:32;;;;;;;0.40;0.40;;;;;;;18.47;48.87;96026.94;29395;221;63004;-52
2023/06/12 01:22:10;;;;;;;0.40;0.40;;;;;;;18.45;48.77;96029.22;29395;269;63009;-63
2023/06/12 01:23:23;;;;;;;0.40;0.40;;;;;;;18.41;48.72;96023.63;29395;198;63018;-52
2023/06/12 01:24:38;;;;;;;0.40;0.40;;;;;;;18.43;48.74;96031.53;29394;330;64013;-66
2023/06/12 01:25:49;;;;;;;0.40;0.40;;;;;;;18.39;48.97;96025.13;29394;200;64009;-65
2023/06/12 01:26:57;;;;;;;0.40;0.40;;;;;;;18.40;48.86;96026.72;29394;208;64013;-51
2023/06/12 01:28:00;;;;;;;0.40;0.40;;;;;;;18.37;49.19;96022.72;29394;218;64009;-62
2023/06/12 01:29:18;;;;;;;0.40;0.40;;;;;;;18.32;49.01;96023.00;29395;279;63009;-61
2023/06/12 01:30:09;;;;;;;0.40;0.40;;;;;;;18.34;49.50;96023.44;29395;226;63004;-51
2023/06/12 01:30:49;;;;;;;0.40;0.40;;;;;;;18.34;49.38;96028.94;29377;246;125017;-51
2023/06/12 01:31:44;;;;;;;0.40;0.40;;;;;;;18.31;49.37;96029.63;29371;204;64008;-60
2023/06/12 01:32:17;;;;;;;0.40;0.40;;;;;;;18.27;49.41;96023.25;29394;315;64028;-51
2023/06/12 01:32:50;;;;;;;0.40;0.40;;;;;;;18.25;49.31;96024.75;29395;364;63005;-62
2023/06/12 01:33:33;;;;;;;8.68;2.15;;;;;;;18.22;49.44;96025.44;29394;205;64009;-51
2023/06/12 01:34:13;;;;;;;0.40;0.40;;;;;;;18.23;50.19;96027.81;29394;212;64009;-62
2023/06/12 01:34:53;;;;;;;0.40;0.40;;;;;;;18.19;49.98;96028.88;29395;237;63009;-62
2023/06/12 01:35:30;;;;;;;0.40;0.40;;;;;;;18.18;50.04;96028.06;29417;265;63005;-63
2023/06/12 01:36:05;;;;;;;0.40;0.40;;;;;;;18.17;49.80;96028.41;29395;292;63009;-51
2023/06/12 01:36:41;;;;;;;0.40;0.40;;;;;;;18.16;49.87;96026.81;29394;278;64009;-53
2023/06/12 01:37:33;;;;;;;0.40;0.40;;;;;;;18.13;50.11;96033.00;29395;196;63009;-62
2023/06/12 01:38:14;;;;;;;0.40;0.40;;;;;;;18.12;50.12;96036.88;29395;216;63004;-63
2023/06/12 01:38:53;;;;;;;0.40;0.40;;;;;;;18.15;50.35;96038.94;29417;203;63008;-61
2023/06/12 01:39:28;;;;;;;0.40;0.40;;;;;;;18.14;50.41;96034.59;29394;320;64002;-62
2023/06/12 01:40:05;;;;;;;0.40;0.40;;;;;;;18.14;50.08;96034.59;29395;219;63009;-63
2023/06/12 01:40:39;;;;;;;0.40;0.40;;;;;;;18.13;50.40;96038.50;29395;202;63005;-61
2023/06/12 01:41:13;;;;;;;0.40;0.40;;;;;;;18.12;50.62;96031.41;29395;238;63009;-61
2023/06/12 01:41:49;;;;;;;0.40;0.40;;;;;;;18.08;50.51;96045.81;29395;246;63005;-51
2023/06/12 01:42:21;;;;;;;0.40;0.40;;;;;;;18.06;50.48;96034.38;29394;207;64013;-62
2023/06/12 01:42:52;;;;;;;0.40;0.40;;;;;;;18.03;50.84;96040.56;29395;212;63009;-62
2023/06/12 01:43:25;;;;;;;0.40;0.40;;;;;;;18.03;50.50;96039.75;29394;202;64009;-62
2023/06/12 01:43:56;;;;;;;0.40;0.40;;;;;;;18.02;50.62;96038.97;29394;212;64009;-64
2023/06/12 01:44:27;;;;;;;0.40;0.40;;;;;;;18.00;50.91;96038.53;29395;204;63016;-61
2023/06/12 01:44:59;;;;;;;0.40;0.40;;;;;;;17.99;51.34;96042.44;29395;274;63004;-51
2023/06/12 01:45:32;;;;;;;0.40;0.40;;;;;;;17.94;52.10;96045.41;29395;213;63009;-62
2023/06/12 01:46:05;;;;;;;0.40;0.40;;;;;;;17.91;51.74;96039.81;29395;316;63014;-61
2023/06/12 01:46:36;;;;;;;0.40;0.40;;;;;;;17.89;51.59;96045.63;29395;225;63008;-51
2023/06/12 01:47:08;;;;;;;0.40;0.40;;;;;;;17.88;51.47;96043.25;29394;215;64009;-62
2023/06/12 01:47:39;;;;;;;0.40;0.40;;;;;;;17.87;52.00;96047.94;29395;364;63009;-51
2023/06/12 01:48:10;;;;;;;0.40;0.40;;;;;;;17.85;52.65;96052.97;29395;254;63005;-62
2023/06/12 01:48:41;;;;;;;0.40;0.40;;;;;;;17.83;52.91;96049.75;29395;236;63020;-51
2023/06/12 01:49:17;;;;;;;0.40;0.40;;;;;;;17.81;53.16;96046.56;29395;208;63005;-51
2023/06/12 01:49:48;;;;;;;0.40;0.40;;;;;;;17.79;52.90;96051.59;29395;222;63009;-61
2023/06/12 01:50:20;;;;;;;0.40;0.40;;;;;;;17.76;53.14;96060.50;29395;214;63000;-52
2023/06/12 01:50:51;;;;;;;0.40;0.40;;;;;;;17.74;53.60;96049.06;29395;344;63009;-64
2023/06/12 01:51:24;;;;;;;0.40;0.40;;;;;;;17.72;54.35;96052.16;29395;207;63004;-62
2023/06/12 01:51:56;;;;;;;0.32;0.32;;;;;;;17.68;54.82;96056.72;29395;240;63009;-52
2023/06/12 01:52:27;;;;;;;0.43;0.43;;;;;;;17.66;54.78;96052.75;29394;233;64009;-52
2023/06/12 01:52:58;;;;;;;0.40;0.40;;;;;;;17.63;54.63;96053.41;29395;233;63009;-63
2023/06/12 01:53:29;;;;;;;0.40;0.40;;;;;;;17.61;54.66;96050.22;29395;237;63018;-61
2023/06/12 01:54:01;;;;;;;0.40;0.40;;;;;;;17.57;54.45;96052.84;29395;205;63008;-53
2023/06/12 01:54:33;;;;;;;0.40;0.40;;;;;;;17.57;54.18;96043.81;29395;256;63005;-52
2023/06/12 01:55:06;;;;;;;0.40;0.40;;;;;;;17.55;55.62;96062.56;29395;203;63009;-52
2023/06/12 01:55:41;;;;;;;0.40;0.40;;;;;;;17.51;55.18;96054.19;29395;205;63005;-61
2023/06/12 01:56:14;;;;;;;0.40;0.40;;;;;;;17.50;54.64;96055.34;29395;202;63026;-63
2023/06/12 01:56:46;;;;;;;0.40;0.40;;;;;;;17.51;54.44;96056.16;29394;213;64009;-52
2023/06/12 01:57:21;;;;;;;0.40;0.40;;;;;;;17.52;54.24;96046.78;29395;210;63009;-52
2023/06/12 01:57:53;;;;;;;0.40;0.40;;;;;;;17.52;53.78;96046.78;29395;206;63005;-61
2023/06/12 01:58:24;;;;;;;0.40;0.40;;;;;;;17.52;54.60;96052.25;29395;226;63009;-62
2023/06/12 01:58:55;;;;;;;0.40;0.40;;;;;;;17.50;54.38;96051.81;29395;232;63004;-63
2023/06/12 01:59:27;;;;;;;0.40;0.40;;;;;;;17.48;54.17;96048.59;29395;295;63009;-52
2023/06/12 02:00:00;;;;;;;0.40;0.40;;;;;;;17.48;54.61;96057.62;29395;324;63004;-63
2023/06/12 02:00:32;;;;;;;0.40;0.40;;;;;;;17.46;55.17;96048.13;29394;261;64013;-52
2023/06/12 02:01:03;;;;;;;0.40;0.40;;;;;;;17.43;55.12;96052.37;29395;208;63004;-62
2023/06/12 02:01:35;;;;;;;0.40;0.40;;;;;;;17.40;56.32;96056.59;29395;197;63008;-52
2023/06/12 02:02:07;;;;;;;0.40;0.40;;;;;;;17.37;56.08;96057.28;29395;297;63005;-61
2023/06/12 02:02:39;;;;;;;0.40;0.40;;;;;;;17.35;56.23;96056.00;29395;204;63009;-51
2023/06/12 02:03:10;;;;;;;0.40;0.40;;;;;;;17.31;56.18;96055.91;29394;267;64009;-61
2023/06/12 02:03:45;;;;;;;0.40;0.40;;;;;;;17.28;55.93;96053.84;29395;202;63017;-51
2023/06/12 02:04:19;;;;;;;0.40;0.40;;;;;;;17.28;56.38;96059.34;29394;329;64009;-51
2023/06/12 02:04:51;;;;;;;0.40;0.40;;;;;;;17.24;55.86;96050.19;29395;230;63026;-61
2023/06/12 02:05:22;;;;;;;0.40;0.40;;;;;;;17.23;55.94;96058.75;29395;223;63005;-51
2023/06/12 02:05:54;;;;;;;0.40;0.40;;;;;;;17.21;56.33;96053.63;29395;260;63009;-51
2023/06/12 02:06:25;;;;;;;0.40;0.40;;;;;;;17.18;56.95;96059.78;29395;217;63004;-51
2023/06/12 02:06:57;;;;;;;0.40;0.40;;;;;;;17.16;56.46;96059.31;29395;204;63009;-61
2023/06/12 02:07:28;;;;;;;0.40;0.40;;;;;;;17.14;56.55;96053.37;29395;224;63004;-59
2023/06/12 02:07:59;;;;;;;0.40;0.40;;;;;;;17.14;56.23;96056.12;29394;272;64013;-51
2023/06/12 02:08:30;;;;;;;0.40;0.40;;;;;;;17.13;56.25;96051.78;29395;214;63004;-62
2023/06/12 02:09:02;;;;;;;0.40;0.40;;;;;;;17.13;56.39;96045.47;29394;225;64013;-52
2023/06/12 02:09:33;;;;;;;0.40;0.40;;;;;;;17.12;56.46;96060.34;29394;218;64009;-61
2023/06/12 02:10:07;;;;;;;0.40;0.40;;;;;;;17.09;57.04;96057.12;29395;204;63009;-51
2023/06/12 02:10:42;;;;;;;0.40;0.40;;;;;;;17.05;56.97;96058.94;29395;225;63005;-61
2023/06/12 02:11:14;;;;;;;0.37;0.37;;;;;;;17.02;57.40;96061.56;29395;202;63009;-52
2023/06/12 02:11:45;;;;;;;0.40;0.40;;;;;;;17.01;57.52;96062.69;29395;203;63005;-61
2023/06/12 02:12:17;;;;;;;0.40;0.40;;;;;;;16.98;57.42;96063.41;29395;227;63009;-62
2023/06/12 02:12:48;;;;;;;0.40;0.40;;;;;;;16.95;57.00;96059.41;29395;214;63005;-61
2023/06/12 02:13:19;;;;;;;0.40;0.40;;;;;;;16.95;57.07;96061.34;29395;196;63009;-62
2023/06/12 02:13:51;;;;;;;0.35;0.35;;;;;;;16.93;57.39;96063.62;29395;213;63004;-62
2023/06/12 02:14:23;;;;;;;0.40;0.40;;;;;;;16.90;57.27;96061.56;29394;289;64013;-62
2023/06/12 02:14:57;;;;;;;0.40;0.40;;;;;;;16.89;57.53;96059.94;29395;277;63013;-62
2023/06/12 02:15:31;;;;;;;0.40;0.40;;;;;;;16.87;57.74;96054.00;29395;287;63008;-62
2023/06/12 02:16:06;;;;;;;0.40;0.40;;;;;;;16.86;57.15;96068.84;29395;249;63004;-61
2023/06/12 02:16:38;;;;;;;0.50;0.50;;;;;;;16.86;57.75;96066.09;29395;247;63026;-51
2023/06/12 02:17:13;;;;;;;0.40;0.40;;;;;;;16.86;56.96;96057.88;29395;219;63005;-63
2023/06/12 02:17:45;;;;;;;0.50;0.50;;;;;;;16.87;57.07;96062.22;29395;224;63009;-62
2023/06/12 02:18:16;;;;;;;0.40;0.40;;;;;;;16.88;57.48;96061.09;29394;216;64009;-63
2023/06/12 02:18:48;;;;;;;0.43;0.43;;;;;;;16.86;58.23;96063.34;29395;221;63009;-51
2023/06/12 02:19:25;;;;;;;0.40;0.40;;;;;;;16.86;57.03;96060.63;29395;290;63005;-63
2023/06/12 02:19:57;;;;;;;0.40;0.40;;;;;;;16.85;58.23;96064.50;29395;218;63018;-61
2023/06/12 02:20:29;;;;;;;0.40;0.40;;;;;;;16.83;58.25;96064.03;29394;198;64009;-62
2023/06/12 02:21:00;;;;;;;0.40;0.40;;;;;;;16.80;58.68;96059.22;29395;225;63009;-52
2023/06/12 02:21:35;;;;;;;0.40;0.40;;;;;;;16.78;57.40;96059.56;29395;218;63004;-63
2023/06/12 02:22:06;;;;;;;0.40;0.40;;;;;;;16.77;57.99;96059.91;29395;254;63009;-51
2023/06/12 02:22:41;;;;;;;0.40;0.40;;;;;;;16.77;58.29;96059.91;29395;216;63004;-51
2023/06/12 02:23:12;;;;;;;0.40;0.40;;;;;;;16.74;57.71;96056.69;29395;214;63008;-61
2023/06/12 02:23:43;;;;;;;0.40;0.40;;;;;;;16.74;57.96;96062.19;29395;210;63004;-63
2023/06/12 02:24:16;;;;;;;0.40;0.40;;;;;;;16.72;58.98;96069.94;29395;208;63009;-51
2023/06/12 02:24:50;;;;;;;0.40;0.40;;;;;;;16.69;57.93;96058.84;29394;207;64009;-61
2023/06/12 02:25:21;;;;;;;0.40;0.40;;;;;;;16.69;58.00;96062.38;29394;251;64014;-62
2023/06/12 02:25:53;;;;;;;0.40;0.40;;;;;;;16.67;57.78;96061.91;29394;240;63994;-62
2023/06/12 02:26:25;;;;;;;0.40;0.40;;;;;;;16.67;57.99;96059.19;29395;310;63009;-62
2023/06/12 02:26:57;;;;;;;0.40;0.40;;;;;;;16.65;58.39;96058.72;29395;197;63005;-62
2023/06/12 02:27:28;;;;;;;0.40;0.40;;;;;;;16.63;58.19;96058.22;29395;221;63024;-62
2023/06/12 02:28:00;;;;;;;0.40;0.40;;;;;;;16.62;58.57;96064.84;29395;257;63004;-51
2023/06/12 02:28:31;;;;;;;0.40;0.40;;;;;;;16.59;59.80;96071.00;29395;359;63018;-62
2023/06/12 02:29:12;;;;;;;0.40;0.40;;;;;;;16.56;58.49;96066.19;29395;212;63004;-62
2023/06/12 02:29:45;;;;;;;0.40;0.40;;;;;;;16.55;58.59;96067.34;29416;213;64013;-63
2023/06/12 02:30:17;;;;;;;0.40;0.40;;;;;;;16.53;59.06;96066.88;29395;225;63004;-51
2023/06/12 02:30:48;;;;;;;0.40;0.40;;;;;;;16.52;58.97;96065.28;29395;371;63008;-51
2023/06/12 02:31:20;;;;;;;0.40;0.40;;;;;;;16.50;58.83;96062.06;29395;196;63005;-61
2023/06/12 02:31:52;;;;;;;0.40;0.40;;;;;;;16.50;59.69;96067.53;29395;216;63009;-62
2023/06/12 02:32:24;;;;;;;0.40;0.40;;;;;;;16.47;60.30;96067.41;29395;209;63005;-62
2023/06/12 02:32:55;;;;;;;0.40;0.40;;;;;;;16.44;59.62;96063.41;29395;230;63009;-63
2023/06/12 02:33:30;;;;;;;0.40;0.40;;;;;;;16.45;59.85;96065.00;29395;212;63005;-62
2023/06/12 02:34:04;;;;;;;0.50;0.50;;;;;;;16.42;59.76;96066.47;29395;241;63009;-62
2023/06/12 02:34:36;;;;;;;0.40;0.40;;;;;;;16.42;59.77;96065.66;29395;249;63005;-62
2023/06/12 02:35:08;;;;;;;0.50;0.50;;;;;;;16.40;59.43;96071.47;29394;225;64013;-52
2023/06/12 02:35:42;;;;;;;0.40;0.40;;;;;;;16.40;59.64;96063.25;29394;214;64004;-63
2023/06/12 02:36:13;;;;;;;0.40;0.40;;;;;;;16.40;59.89;96059.72;29395;224;63026;-61
2023/06/12 02:36:50;;;;;;;0.40;0.40;;;;;;;16.35;60.20;96058.00;29395;215;63004;-62
2023/06/12 02:37:22;;;;;;;0.50;0.50;;;;;;;16.34;60.55;96061.84;29394;203;64009;-62
2023/06/12 02:37:53;;;;;;;0.40;0.40;;;;;;;16.30;60.37;96069.13;29395;202;63004;-62
2023/06/12 02:38:26;;;;;;;0.50;0.50;;;;;;;16.28;60.41;96057.75;29395;261;63008;-51
2023/06/12 02:39:00;;;;;;;0.40;0.40;;;;;;;16.30;60.03;96060.13;29395;258;63005;-63
2023/06/12 02:39:32;;;;;;;0.40;0.40;;;;;;;16.30;59.97;96063.66;29395;259;63009;-51
2023/06/12 02:40:04;;;;;;;0.40;0.40;;;;;;;16.31;60.12;96065.25;29394;204;64009;-61
2023/06/12 02:40:36;;;;;;;0.40;0.40;;;;;;;16.30;59.91;96062.84;29395;243;63009;-62
2023/06/12 02:41:12;;;;;;;0.40;0.40;;;;;;;16.31;59.71;96056.25;29395;205;63005;-62
2023/06/12 02:41:46;;;;;;;0.40;0.40;;;;;;;16.32;60.19;96066.06;29395;228;63009;-62
2023/06/12 02:42:17;;;;;;;0.40;0.40;;;;;;;16.31;59.63;96059.00;29395;220;63005;-62
2023/06/12 02:42:49;;;;;;;0.40;0.40;;;;;;;16.31;59.87;96059.00;29395;265;63009;-62
2023/06/12 02:43:20;;;;;;;0.40;0.40;;;;;;;16.32;59.99;96058.66;29395;220;63004;-64